createdAt,value
2022-10-02T00:00:01.903Z,29.17
2022-10-02T00:02:45.744Z,29.17
2022-10-02T00:05:41.361Z,28.83
2022-10-02T00:08:38.071Z,28.85
2022-10-02T00:11:28.413Z,26.35
2022-10-02T00:14:04.598Z,27.80
2022-10-02T00:16:43.724Z,28.23
2022-10-02T00:19:16.869Z,27.88
2022-10-02T00:21:51.448Z,27.58
2022-10-02T00:24:28.426Z,31.35
2022-10-02T00:27:32.119Z,30.85
2022-10-02T00:30:03.738Z,31.67
2022-10-02T00:32:38.050Z,29.35
2022-10-02T00:35:31.833Z,28.55
2022-10-02T00:38:12.982Z,27.45
2022-10-02T00:41:23.550Z,26.92
2022-10-02T00:44:14.036Z,26.42
2022-10-02T00:46:58.997Z,25.92
2022-10-02T00:50:09.379Z,24.55
2022-10-02T00:52:42.728Z,24.70
2022-10-02T00:55:21.770Z,25.17
2022-10-02T00:58:04.966Z,27.17
2022-10-02T01:00:34.146Z,29.17
2022-10-02T01:03:17.523Z,31.33
2022-10-02T01:05:47.626Z,30.10
2022-10-02T01:08:19.245Z,29.40
2022-10-02T01:10:49.373Z,29.55
2022-10-02T01:13:18.664Z,28.40
2022-10-02T01:15:54.692Z,28.88
2022-10-02T01:18:24.214Z,30.45
2022-10-02T01:20:59.681Z,30.08
2022-10-02T01:23:38.011Z,28.83
2022-10-02T01:26:08.983Z,29.05
2022-10-02T01:28:38.591Z,29.70
2022-10-02T01:31:11.726Z,30.58
2022-10-02T01:33:42.575Z,30.17
2022-10-02T01:36:14.027Z,32.03
2022-10-02T01:38:44.419Z,32.70
2022-10-02T01:41:16.108Z,37.72
2022-10-02T01:43:54.994Z,36.83
2022-10-02T01:46:43.805Z,38.47
2022-10-02T01:49:47.938Z,37.63
2022-10-02T01:53:03.052Z,35.47
2022-10-02T01:55:57.666Z,33.88
2022-10-02T01:58:51.122Z,34.97
2022-10-02T02:01:26.774Z,36.63
2022-10-02T02:04:20.905Z,36.38
2022-10-02T02:07:26.974Z,40.63
2022-10-02T02:10:18.921Z,44.90
2022-10-02T02:12:57.497Z,42.77
2022-10-02T02:15:47.586Z,44.42
2022-10-02T02:18:25.225Z,43.67
2022-10-02T02:21:00.130Z,42.72
2022-10-02T02:23:33.779Z,42.05
2022-10-02T02:26:09.651Z,42.10
2022-10-02T02:28:45.226Z,40.58
2022-10-02T02:31:20.359Z,42.35
2022-10-02T02:34:02.239Z,39.78
2022-10-02T02:36:38.137Z,38.50
2022-10-02T02:39:16.706Z,40.65
2022-10-02T02:41:51.309Z,39.10
2022-10-02T02:44:38.201Z,38.67
2022-10-02T02:47:14.292Z,34.97
2022-10-02T02:49:54.948Z,36.38
2022-10-02T02:52:31.558Z,37.22
2022-10-02T02:55:32.363Z,43.35
2022-10-02T02:58:20.515Z,39.60
2022-10-02T03:00:49.731Z,34.75
2022-10-02T03:03:19.002Z,35.17
2022-10-02T03:05:54.506Z,33.22
2022-10-02T03:08:33.316Z,32.95
2022-10-02T03:11:14.619Z,33.28
2022-10-02T03:14:02.538Z,32.65
2022-10-02T03:16:58.185Z,30.55
2022-10-02T03:19:52.059Z,33.35
2022-10-02T03:22:37.406Z,28.65
2022-10-02T03:25:15.702Z,31.58
2022-10-02T03:28:43.360Z,29.40
2022-10-02T03:31:14.395Z,30.20
2022-10-02T03:33:45.638Z,29.10
2022-10-02T03:36:19.090Z,28.52
2022-10-02T03:39:00.665Z,29.83
2022-10-02T03:41:35.963Z,27.45
2022-10-02T03:44:05.117Z,26.27
2022-10-02T03:46:34.441Z,26.30
2022-10-02T03:49:04.499Z,25.25
2022-10-02T03:51:33.546Z,25.80
2022-10-02T03:54:02.574Z,26.05
2022-10-02T03:56:53.043Z,24.45
2022-10-02T03:59:34.442Z,24.52
2022-10-02T04:02:08.121Z,23.98
2022-10-02T04:05:03.518Z,23.88
2022-10-02T04:07:41.422Z,22.33
2022-10-02T04:11:04.461Z,24.63
2022-10-02T04:13:52.039Z,24.88
2022-10-02T04:16:41.584Z,23.88
2022-10-02T04:19:19.980Z,23.65
2022-10-02T04:21:57.726Z,24.90
2022-10-02T04:24:45.998Z,23.35
2022-10-02T04:27:40.086Z,23.42
2022-10-02T04:30:16.121Z,23.25
2022-10-02T04:32:46.333Z,23.27
2022-10-02T04:35:27.898Z,22.90
2022-10-02T04:38:41.239Z,21.30
2022-10-02T04:44:14.877Z,17.83
2022-10-02T04:46:56.905Z,17.77
2022-10-02T04:49:37.534Z,17.00
2022-10-02T04:52:25.260Z,16.42
2022-10-02T04:55:15.708Z,15.48
2022-10-02T05:00:34.042Z,13.60
2022-10-02T05:03:23.705Z,14.57
2022-10-02T05:06:08.682Z,13.88
2022-10-02T05:08:40.824Z,11.93
2022-10-02T05:11:32.004Z,12.57
2022-10-02T05:14:12.672Z,11.85
2022-10-02T05:17:23.467Z,12.00
2022-10-02T05:20:40.769Z,11.93
2022-10-02T05:23:40.061Z,12.55
2022-10-02T05:26:29.608Z,11.18
2022-10-02T05:29:19.684Z,13.80
2022-10-02T05:31:56.759Z,14.88
2022-10-02T05:35:00.216Z,11.85
2022-10-02T05:37:50.314Z,18.00
2022-10-02T05:40:35.243Z,12.48
2022-10-02T05:43:13.661Z,12.25
2022-10-02T05:45:51.549Z,12.60
2022-10-02T05:48:23.316Z,13.15
2022-10-02T05:51:00.651Z,16.55
2022-10-02T05:53:37.996Z,16.80
2022-10-02T05:56:32.283Z,16.25
2022-10-02T05:59:30.488Z,14.82
2022-10-02T06:02:04.064Z,15.90
2022-10-02T06:04:41.060Z,11.35
2022-10-02T06:07:16.975Z,12.98
2022-10-02T06:10:02.136Z,13.13
2022-10-02T06:12:42.923Z,14.95
2022-10-02T06:15:28.066Z,13.35
2022-10-02T06:18:06.470Z,10.18
2022-10-02T06:20:47.864Z,12.23
2022-10-02T06:23:26.210Z,10.93
2022-10-02T06:26:11.654Z,11.23
2022-10-02T06:28:55.357Z,10.82
2022-10-02T06:31:42.145Z,12.20
2022-10-02T06:34:14.283Z,11.80
2022-10-02T06:39:30.780Z,12.30
2022-10-02T06:42:25.518Z,11.23
2022-10-02T06:45:01.306Z,12.85
2022-10-02T06:47:39.762Z,13.55
2022-10-02T06:50:28.490Z,13.15
2022-10-02T06:53:08.244Z,10.50
2022-10-02T06:56:14.716Z,9.88
2022-10-02T06:58:49.276Z,10.63
2022-10-02T07:01:38.201Z,10.00
2022-10-02T07:04:35.572Z,12.68
2022-10-02T07:07:18.980Z,9.18
2022-10-02T07:09:53.731Z,10.68
2022-10-02T07:13:19.261Z,10.40
2022-10-02T07:16:08.874Z,7.85
2022-10-02T07:18:55.998Z,7.82
2022-10-02T07:21:37.581Z,7.93
2022-10-02T07:24:15.382Z,7.00
2022-10-02T07:27:13.767Z,8.43
2022-10-02T07:30:03.309Z,8.20
2022-10-02T07:32:48.905Z,8.75
2022-10-02T07:35:49.334Z,9.68
2022-10-02T07:38:44.258Z,9.05
2022-10-02T07:41:37.501Z,8.70
2022-10-02T07:44:21.919Z,8.32
2022-10-02T07:47:09.057Z,8.63
2022-10-02T07:50:06.150Z,5.47
2022-10-02T07:52:59.152Z,5.20
2022-10-02T07:55:28.994Z,5.13
2022-10-02T07:58:11.142Z,5.32
2022-10-02T08:01:04.580Z,7.20
2022-10-02T08:03:40.053Z,5.68
2022-10-02T08:06:09.990Z,7.20
2022-10-02T08:09:08.074Z,7.05
2022-10-02T08:11:49.359Z,5.78
2022-10-02T08:14:44.107Z,6.55
2022-10-02T08:17:23.004Z,7.65
2022-10-02T08:19:53.620Z,8.75
2022-10-02T08:22:39.379Z,7.38
2022-10-02T08:25:17.567Z,6.10
2022-10-02T08:28:10.197Z,4.07
2022-10-02T08:30:39.357Z,4.45
2022-10-02T08:33:20.999Z,4.68
2022-10-02T08:36:10.957Z,5.63
2022-10-02T08:39:17.914Z,2.75
2022-10-02T08:42:24.581Z,2.78
2022-10-02T08:45:36.757Z,4.13
2022-10-02T08:48:29.755Z,4.13
2022-10-02T08:51:35.617Z,4.68
2022-10-02T08:54:29.606Z,4.60
2022-10-02T08:57:13.595Z,3.15
2022-10-02T08:59:54.197Z,4.20
2022-10-02T09:02:40.922Z,4.45
2022-10-02T09:05:31.090Z,5.05
2022-10-02T09:08:15.147Z,3.42
2022-10-02T09:10:53.701Z,6.97
2022-10-02T09:13:50.605Z,6.30
2022-10-02T09:16:35.323Z,4.63
2022-10-02T09:19:43.052Z,8.80
2022-10-02T09:22:33.699Z,4.00
2022-10-02T09:25:38.520Z,4.28
2022-10-02T09:28:41.400Z,5.07
2022-10-02T09:31:31.326Z,4.00
2022-10-02T09:34:06.510Z,4.38
2022-10-02T09:37:12.078Z,3.92
2022-10-02T09:40:07.167Z,4.32
2022-10-02T09:43:03.219Z,4.40
2022-10-02T09:45:46.976Z,3.53
2022-10-02T09:48:46.451Z,4.28
2022-10-02T09:51:46.155Z,5.05
2022-10-02T09:54:33.354Z,5.38
2022-10-02T09:57:12.652Z,6.47
2022-10-02T10:00:18.214Z,5.63
2022-10-02T10:03:19.518Z,7.38
2022-10-02T10:06:20.451Z,9.63
2022-10-02T10:09:12.344Z,5.82
2022-10-02T10:11:48.968Z,6.13
2022-10-02T10:14:24.868Z,6.53
2022-10-02T10:17:57.014Z,5.50
2022-10-02T10:20:52.962Z,8.32
2022-10-02T10:23:52.195Z,10.90
2022-10-02T10:26:45.101Z,6.70
2022-10-02T10:29:23.009Z,5.53
2022-10-02T10:32:32.224Z,11.20
2022-10-02T10:35:21.175Z,7.07
2022-10-02T10:38:27.224Z,5.13
2022-10-02T10:41:14.603Z,4.25
2022-10-02T10:44:05.145Z,8.65
2022-10-02T10:46:57.333Z,6.60
2022-10-02T10:49:56.215Z,6.20
2022-10-02T10:52:56.044Z,4.30
2022-10-02T10:55:53.830Z,6.18
2022-10-02T10:58:35.858Z,5.45
2022-10-02T11:01:43.912Z,5.70
2022-10-02T11:04:44.802Z,6.90
2022-10-02T11:07:47.314Z,5.22
2022-10-02T11:10:48.053Z,4.75
2022-10-02T11:13:35.457Z,6.18
2022-10-02T11:16:23.777Z,5.68
2022-10-02T11:19:02.693Z,5.40
2022-10-02T11:21:46.176Z,9.82
2022-10-02T11:24:28.288Z,8.07
2022-10-02T11:29:49.838Z,11.40
2022-10-02T11:32:55.606Z,6.60
2022-10-02T11:36:03.147Z,6.90
2022-10-02T11:38:51.202Z,6.57
2022-10-02T11:41:48.526Z,5.50
2022-10-02T11:44:36.367Z,14.85
2022-10-02T11:47:34.757Z,15.32
2022-10-02T11:50:30.239Z,18.58
2022-10-02T11:53:20.920Z,14.18
2022-10-02T11:56:12.757Z,15.43
2022-10-02T11:59:02.222Z,20.08
2022-10-02T12:01:34.242Z,9.00
2022-10-02T12:07:12.200Z,9.23
2022-10-02T12:09:55.694Z,14.63
2022-10-02T12:12:58.329Z,8.63
2022-10-02T12:18:45.271Z,6.22
2022-10-02T12:21:41.135Z,6.22
2022-10-02T12:25:16.630Z,7.95
2022-10-02T12:28:16.360Z,4.97
2022-10-02T12:31:13.226Z,5.75
2022-10-02T12:34:28.872Z,10.90
2022-10-02T12:37:08.210Z,7.53
2022-10-02T12:39:46.212Z,8.02
2022-10-02T12:42:43.876Z,8.15
2022-10-02T12:45:33.802Z,7.20
2022-10-02T12:48:34.359Z,11.90
2022-10-02T12:51:34.788Z,14.82
2022-10-02T12:54:19.649Z,13.23
2022-10-02T12:57:39.524Z,9.70
2022-10-02T13:00:17.416Z,11.35
2022-10-02T13:03:06.552Z,13.45
2022-10-02T13:05:52.694Z,9.95
2022-10-02T13:08:43.644Z,9.73
2022-10-02T13:11:28.895Z,8.20
2022-10-02T13:14:17.812Z,7.65
2022-10-02T13:16:50.127Z,9.50
2022-10-02T13:19:50.816Z,8.88
2022-10-02T13:22:41.648Z,10.55
2022-10-02T13:25:26.541Z,9.18
2022-10-02T13:28:08.687Z,12.73
2022-10-02T13:30:50.706Z,13.55
2022-10-02T13:34:14.103Z,9.23
2022-10-02T13:37:14.651Z,13.27
2022-10-02T13:40:03.133Z,12.35
2022-10-02T13:43:04.513Z,12.00
2022-10-02T13:45:54.760Z,12.43
2022-10-02T13:48:34.400Z,10.45
2022-10-02T13:51:33.139Z,10.95
2022-10-02T13:54:18.142Z,11.95
2022-10-02T13:57:11.822Z,9.00
2022-10-02T14:00:24.982Z,10.77
2022-10-02T14:03:08.282Z,8.73
2022-10-02T14:05:58.239Z,8.88
2022-10-02T14:08:41.020Z,9.27
2022-10-02T14:11:35.865Z,9.20
2022-10-02T14:14:32.486Z,7.43
2022-10-02T14:17:16.602Z,8.02
2022-10-02T14:20:20.034Z,9.75
2022-10-02T14:23:04.293Z,7.70
2022-10-02T14:26:17.853Z,9.63
2022-10-02T14:29:50.200Z,8.73
2022-10-02T14:32:30.669Z,9.25
2022-10-02T14:35:20.907Z,9.50
2022-10-02T14:38:09.111Z,9.82
2022-10-02T14:40:58.494Z,10.10
2022-10-02T14:43:47.204Z,9.50
2022-10-02T14:47:03.260Z,9.77
2022-10-02T14:50:02.829Z,11.07
2022-10-02T14:53:01.617Z,10.18
2022-10-02T14:55:39.645Z,9.77
2022-10-02T14:58:46.914Z,9.98
2022-10-02T15:01:24.269Z,9.93
2022-10-02T15:04:14.910Z,10.02
2022-10-02T15:07:16.488Z,10.70
2022-10-02T15:10:03.742Z,11.18
2022-10-02T15:13:17.769Z,11.40
2022-10-02T15:16:17.729Z,12.57
2022-10-02T15:18:56.911Z,11.30
2022-10-02T15:21:48.680Z,12.38
2022-10-02T15:24:44.636Z,11.80
2022-10-02T15:27:40.236Z,13.00
2022-10-02T15:30:21.905Z,12.50
2022-10-02T15:32:57.945Z,14.20
2022-10-02T15:35:32.655Z,14.43
2022-10-02T15:38:30.587Z,15.38
2022-10-02T15:41:14.315Z,13.68
2022-10-02T15:44:26.479Z,14.32
2022-10-02T15:47:36.833Z,14.70
2022-10-02T15:50:50.118Z,13.90
2022-10-02T15:53:57.426Z,17.10
2022-10-02T15:56:52.753Z,17.50
2022-10-02T15:59:31.131Z,13.85
2022-10-02T16:02:32.388Z,16.02
2022-10-02T16:05:15.035Z,14.77
2022-10-02T16:08:10.071Z,13.45
2022-10-02T16:10:56.105Z,16.00
2022-10-02T16:13:43.598Z,16.10
2022-10-02T16:16:21.180Z,15.65
2022-10-02T16:19:10.176Z,15.68
2022-10-02T16:22:17.805Z,16.38
2022-10-02T16:24:53.567Z,14.90
2022-10-02T16:27:33.668Z,16.38
2022-10-02T16:30:36.295Z,15.82
2022-10-02T16:33:15.880Z,15.20
2022-10-02T16:36:31.120Z,19.17
2022-10-02T16:39:20.391Z,23.50
2022-10-02T16:42:15.908Z,40.53
2022-10-02T16:45:14.063Z,42.83
2022-10-02T16:47:59.952Z,41.30
2022-10-02T16:51:07.984Z,36.05
2022-10-02T16:53:43.303Z,39.55
2022-10-02T16:56:35.985Z,40.97
2022-10-02T17:02:13.089Z,39.78
2022-10-02T17:04:59.507Z,48.58
2022-10-02T17:07:44.434Z,53.63
2022-10-02T17:10:35.073Z,53.65
2022-10-02T17:13:15.520Z,53.22
2022-10-02T17:15:57.649Z,52.95
2022-10-02T17:18:47.096Z,55.10
2022-10-02T17:21:25.517Z,50.28
2022-10-02T17:23:59.880Z,46.90
2022-10-02T17:26:50.788Z,48.45
2022-10-02T17:29:43.553Z,46.72
2022-10-02T17:32:13.060Z,44.42
2022-10-02T17:34:51.811Z,40.35
2022-10-02T17:37:51.641Z,41.78
2022-10-02T17:40:29.445Z,39.22
2022-10-02T17:43:12.898Z,39.15
2022-10-02T17:46:04.250Z,35.25
2022-10-02T17:49:16.208Z,33.67
2022-10-02T17:51:59.238Z,29.75
2022-10-02T17:55:24.681Z,26.98
2022-10-02T17:58:20.800Z,24.77
2022-10-02T18:01:34.713Z,20.17
2022-10-02T18:04:33.282Z,19.80
2022-10-02T18:07:22.604Z,18.55
2022-10-02T18:10:04.651Z,17.27
2022-10-02T18:12:52.838Z,17.88
2022-10-02T18:15:30.899Z,20.05
2022-10-02T18:18:32.306Z,20.65
2022-10-02T18:21:49.783Z,19.02
2022-10-02T18:24:45.102Z,20.15
2022-10-02T18:27:45.083Z,19.30
2022-10-02T18:30:21.398Z,19.80
2022-10-02T18:33:03.307Z,20.30
2022-10-02T18:35:48.707Z,21.75
2022-10-02T18:38:27.433Z,20.63
2022-10-02T18:41:37.301Z,19.55
2022-10-02T18:44:44.467Z,20.60
2022-10-02T18:47:37.183Z,18.42
2022-10-02T18:50:24.400Z,21.55
2022-10-02T18:53:16.902Z,18.27
2022-10-02T18:55:49.483Z,18.58
2022-10-02T18:58:33.685Z,19.80
2022-10-02T19:01:14.607Z,18.48
2022-10-02T19:04:05.371Z,19.38
2022-10-02T19:06:54.721Z,17.92
2022-10-02T19:09:29.358Z,18.98
2022-10-02T19:12:13.551Z,18.42
2022-10-02T19:14:48.825Z,19.40
2022-10-02T19:17:25.616Z,18.55
2022-10-02T19:19:56.812Z,20.63
2022-10-02T19:22:39.529Z,18.60
2022-10-02T19:25:21.360Z,18.67
2022-10-02T19:27:58.364Z,18.33
2022-10-02T19:30:31.352Z,16.90
2022-10-02T19:33:10.358Z,19.30
2022-10-02T19:35:45.428Z,18.30
2022-10-02T19:38:34.023Z,19.52
2022-10-02T19:41:10.919Z,19.30
2022-10-02T19:43:58.875Z,20.10
2022-10-02T19:46:56.045Z,20.00
2022-10-02T19:49:31.421Z,18.27
2022-10-02T19:52:00.485Z,19.13
2022-10-02T19:54:38.894Z,19.75
2022-10-02T19:57:17.352Z,20.80
2022-10-02T19:59:53.311Z,19.92
2022-10-02T20:02:42.313Z,20.38
2022-10-02T20:05:22.513Z,20.33
2022-10-02T20:07:57.065Z,21.10
2022-10-02T20:11:01.141Z,22.08
2022-10-02T20:13:51.277Z,20.92
2022-10-02T20:16:44.555Z,24.35
2022-10-02T20:19:46.246Z,23.20
2022-10-02T20:22:18.815Z,21.83
2022-10-02T20:25:09.842Z,22.10
2022-10-02T20:27:39.049Z,24.00
2022-10-02T20:30:18.074Z,23.88
2022-10-02T20:32:53.808Z,22.33
2022-10-02T20:35:36.001Z,21.40
2022-10-02T20:38:12.239Z,23.25
2022-10-02T20:40:52.726Z,23.70
2022-10-02T20:43:33.815Z,24.30
2022-10-02T20:46:20.869Z,24.90
2022-10-02T20:49:09.433Z,25.05
2022-10-02T20:52:14.839Z,25.13
2022-10-02T20:54:55.277Z,24.10
2022-10-02T20:58:07.010Z,25.13
2022-10-02T21:01:13.880Z,26.33
2022-10-02T21:04:01.045Z,29.45
2022-10-02T21:06:54.864Z,29.27
2022-10-02T21:09:35.737Z,28.48
2022-10-02T21:12:20.108Z,24.58
2022-10-02T21:14:54.520Z,24.60
2022-10-02T21:17:47.965Z,25.50
2022-10-02T21:20:51.959Z,24.30
2022-10-02T21:23:33.355Z,24.20
2022-10-02T21:26:14.963Z,24.73
2022-10-02T21:28:47.160Z,22.95
2022-10-02T21:31:28.647Z,23.75
2022-10-02T21:34:10.311Z,25.30
2022-10-02T21:37:23.277Z,26.40
2022-10-02T21:40:30.070Z,26.88
2022-10-02T21:43:18.677Z,27.45
2022-10-02T21:46:09.369Z,29.38
2022-10-02T21:49:21.063Z,28.83
2022-10-02T21:52:12.487Z,30.98
2022-10-02T21:55:03.927Z,31.25
2022-10-02T21:57:43.631Z,30.83
2022-10-02T22:00:38.179Z,33.45
2022-10-02T22:03:11.432Z,27.70
2022-10-02T22:05:40.660Z,30.88
2022-10-02T22:08:22.195Z,30.60
2022-10-02T22:10:56.385Z,34.57
2022-10-02T22:13:38.286Z,36.05
2022-10-02T22:16:35.574Z,37.55
2022-10-02T22:19:27.607Z,38.50
2022-10-02T22:22:14.812Z,36.13
2022-10-02T22:25:05.419Z,36.17
2022-10-02T22:27:40.606Z,35.67
2022-10-02T22:30:23.926Z,36.60
2022-10-02T22:33:17.661Z,36.08
2022-10-02T22:35:56.603Z,36.85
2022-10-02T22:38:37.310Z,34.28
2022-10-02T22:41:34.193Z,37.28
2022-10-02T22:44:26.792Z,38.17
2022-10-02T22:47:13.251Z,37.30
2022-10-02T22:49:52.133Z,36.65
2022-10-02T22:52:30.401Z,34.33
2022-10-02T22:55:15.866Z,32.17
2022-10-02T22:57:59.790Z,32.33
2022-10-02T23:00:52.127Z,30.15
2022-10-02T23:03:47.560Z,27.73
2022-10-02T23:06:31.480Z,30.40
2022-10-02T23:09:00.494Z,30.13
2022-10-02T23:11:40.431Z,29.65
2022-10-02T23:14:21.723Z,29.60
2022-10-02T23:17:01.872Z,28.23
2022-10-02T23:19:43.741Z,28.67
2022-10-02T23:22:23.590Z,31.02
2022-10-02T23:25:01.402Z,29.75
2022-10-02T23:27:48.768Z,29.48
2022-10-02T23:30:23.189Z,28.08
2022-10-02T23:33:18.416Z,32.28
2022-10-02T23:36:02.003Z,29.92
2022-10-02T23:39:13.518Z,30.42
2022-10-02T23:41:56.383Z,30.40
2022-10-02T23:44:58.828Z,30.00
2022-10-02T23:47:45.971Z,30.92
2022-10-02T23:50:42.297Z,29.42
2022-10-02T23:53:38.976Z,28.55
2022-10-02T23:56:41.386Z,30.38
2022-10-02T23:59:27.868Z,29.83
